Time;durP1;ratioP1;P1;durP2;ratioP2;P2;SDS_P1;SDS_P2;PMS_P1;PMS_P2;Temp;Humidity;BMP_temperature;BMP_pressure;BME280_temperature;BME280_humidity;BME280_pressure;Samples;Min_cycle;Max_cycle;Signal;HPM_P1;HPM_P2
2022/06/20 00:01:00;;;;;;;12.27;8.05;;;22.90;99.90;;;;;;4994237;28;20230;-91
2022/06/20 00:03:35;;;;;;;17.45;8.68;;;22.90;99.90;;;;;;4994221;28;20273;-91
2022/06/20 00:06:01;;;;;;;16.42;8.75;;;23.00;99.90;;;;;;4994146;28;20174;-91
2022/06/20 00:08:27;;;;;;;14.90;8.50;;;22.90;99.90;;;;;;4993985;28;20199;-91
2022/06/20 00:10:53;;;;;;;14.50;8.60;;;23.00;99.90;;;;;;4993854;28;20227;-92
2022/06/20 00:13:21;;;;;;;17.40;8.73;;;22.80;99.90;;;;;;4993880;28;20214;-91
2022/06/20 00:15:49;;;;;;;16.05;8.75;;;22.80;99.90;;;;;;4994009;28;20231;-91
2022/06/20 00:18:15;;;;;;;15.48;8.23;;;22.80;99.90;;;;;;4977675;28;20183;-92
2022/06/20 00:20:41;;;;;;;12.85;7.72;;;22.70;99.90;;;;;;4993756;28;20187;-91
2022/06/20 00:23:08;;;;;;;14.35;8.02;;;22.60;99.90;;;;;;4992984;28;20290;-92
2022/06/20 00:25:36;;;;;;;14.77;7.93;;;22.70;99.90;;;;;;4993512;28;20246;-91
2022/06/20 00:28:03;;;;;;;15.00;8.35;;;22.70;99.90;;;;;;4993285;28;20338;-91
2022/06/20 00:30:29;;;;;;;12.80;8.20;;;22.70;99.90;;;;;;4993686;28;20204;-91
2022/06/20 00:32:55;;;;;;;17.08;8.63;;;22.60;99.90;;;;;;4977766;28;20251;-91
2022/06/20 00:35:21;;;;;;;12.38;7.78;;;22.60;99.90;;;;;;4977155;28;20215;-91
2022/06/20 00:37:48;;;;;;;12.30;7.95;;;22.60;99.90;;;;;;4977488;28;20262;-91
2022/06/20 00:40:29;;;;;;;15.80;8.57;;;22.50;99.90;;;;;;4977110;28;20196;-92
2022/06/20 00:42:57;;;;;;;16.50;8.40;;;22.50;99.90;;;;;;4977053;28;20211;-91
2022/06/20 00:45:25;;;;;;;12.10;7.95;;;22.60;99.90;;;;;;4977310;28;20260;-92
2022/06/20 00:47:55;;;;;;;14.45;8.45;;;22.50;99.90;;;;;;4976844;28;20184;-91
2022/06/20 00:50:29;;;;;;;19.08;9.52;;;22.50;99.90;;;;;;4976922;28;20207;-91
2022/06/20 00:53:18;;;;;;;15.00;8.85;;;22.50;99.90;;;;;;4976917;28;20187;-92
2022/06/20 00:55:53;;;;;;;16.10;8.93;;;22.40;99.90;;;;;;4977065;28;20180;-91
2022/06/20 00:58:36;;;;;;;14.27;8.15;;;22.30;99.90;;;;;;4992655;28;20632;-92
2022/06/20 01:01:02;;;;;;;16.45;8.63;;;22.20;99.90;;;;;;4976992;28;20250;-91
2022/06/20 01:03:33;;;;;;;12.82;8.23;;;22.20;99.90;;;;;;4992643;28;20235;-91
2022/06/20 01:06:10;;;;;;;14.48;8.85;;;22.30;99.90;;;;;;4992716;28;20172;-92
2022/06/20 01:08:51;;;;;;;14.75;8.50;;;22.30;99.90;;;;;;4992765;28;20298;-91
2022/06/20 01:11:22;;;;;;;16.02;8.70;;;22.30;99.90;;;;;;4992433;28;20200;-91
2022/06/20 01:13:49;;;;;;;12.73;8.18;;;22.30;99.90;;;;;;4992719;28;20242;-92
2022/06/20 01:16:26;;;;;;;15.02;8.65;;;22.40;99.90;;;;;;4992504;28;20179;-92
2022/06/20 01:18:54;;;;;;;15.25;8.85;;;22.40;99.90;;;;;;4992911;28;20180;-91
2022/06/20 01:21:24;;;;;;;13.88;8.68;;;22.40;99.90;;;;;;4992380;28;20215;-92
2022/06/20 01:24:10;;;;;;;14.20;9.05;;;22.30;99.90;;;;;;4976494;28;20179;-91
2022/06/20 01:26:54;;;;;;;15.18;8.75;;;22.30;99.90;;;;;;4976373;28;20214;-92
2022/06/20 01:29:21;;;;;;;14.85;8.98;;;22.20;99.90;;;;;;4976223;28;20203;-91
2022/06/20 01:31:51;;;;;;;13.48;8.80;;;22.20;99.90;;;;;;4976262;28;20210;-92
2022/06/20 01:34:18;;;;;;;12.40;8.40;;;22.10;99.90;;;;;;4977129;28;20188;-92
2022/06/20 01:39:39;;;;;;;17.35;9.57;;;22.10;99.90;;;;;;4993281;28;20184;-92
2022/06/20 01:42:20;;;;;;;17.30;9.30;;;22.20;99.90;;;;;;4976271;28;20215;-92
2022/06/20 01:45:57;;;;;;;17.13;8.93;;;22.20;99.90;;;;;;4992397;28;20206;-91
2022/06/20 01:48:03;;;;;;;13.68;8.55;;;22.20;99.90;;;;;;4992242;28;20176;-91
2022/06/20 01:50:32;;;;;;;19.92;10.00;;;22.10;99.90;;;;;;4992431;28;20218;-92
2022/06/20 01:53:01;;;;;;;12.85;9.10;;;22.10;99.90;;;;;;4991798;28;20187;-91
2022/06/20 01:55:28;;;;;;;15.32;9.00;;;22.20;99.90;;;;;;4991643;28;20199;-92
2022/06/20 01:58:05;;;;;;;15.55;9.20;;;22.10;99.90;;;;;;4991830;28;20195;-91
2022/06/20 02:00:34;;;;;;;17.27;9.15;;;22.00;99.90;;;;;;4991733;28;20331;-91
2022/06/20 02:03:05;;;;;;;15.68;9.43;;;21.90;99.90;;;;;;4991747;28;20239;-92
2022/06/20 02:05:32;;;;;;;18.13;9.00;;;21.80;99.90;;;;;;4991796;28;20180;-91
2022/06/20 02:08:02;;;;;;;16.58;9.23;;;21.80;99.90;;;;;;4990619;28;20192;-92
2022/06/20 02:10:42;;;;;;;14.07;9.23;;;21.70;99.90;;;;;;4991523;28;20270;-91
2022/06/20 02:13:09;;;;;;;17.85;8.93;;;21.70;99.90;;;;;;4991840;28;20242;-91
2022/06/20 02:15:35;;;;;;;14.68;8.50;;;21.70;99.90;;;;;;4991196;28;20200;-91
2022/06/20 02:18:03;;;;;;;13.48;8.80;;;21.70;99.90;;;;;;4991759;28;20214;-92
2022/06/20 02:20:38;;;;;;;13.05;9.15;;;21.70;99.90;;;;;;4990852;28;20184;-91
2022/06/20 02:23:05;;;;;;;14.57;9.75;;;21.70;99.90;;;;;;4991198;28;20199;-92
2022/06/20 02:25:34;;;;;;;11.98;9.48;;;21.70;99.90;;;;;;4991364;28;20271;-91
2022/06/20 02:28:06;;;;;;;14.60;9.55;;;21.70;99.90;;;;;;4959086;28;20180;-91
2022/06/20 02:30:34;;;;;;;15.90;10.38;;;21.70;99.90;;;;;;4958897;28;20184;-92
2022/06/20 02:33:30;;;;;;;11.57;9.05;;;21.60;99.90;;;;;;4991337;28;20234;-91
2022/06/20 02:36:00;;;;;;;15.07;10.27;;;21.60;99.90;;;;;;4954157;28;20199;-92
2022/06/20 02:38:28;;;;;;;16.20;10.00;;;21.60;99.90;;;;;;4990927;28;20557;-92
2022/06/20 02:40:56;;;;;;;16.02;9.43;;;21.50;99.90;;;;;;4990811;28;20203;-92
2022/06/20 02:43:39;;;;;;;15.02;9.68;;;21.50;99.90;;;;;;4990884;28;20242;-91
2022/06/20 02:46:11;;;;;;;13.82;9.60;;;21.40;99.90;;;;;;4974475;28;20258;-91
2022/06/20 02:48:39;;;;;;;16.33;9.73;;;21.40;99.90;;;;;;4990961;28;20187;-91
2022/06/20 02:51:07;;;;;;;16.88;9.13;;;21.60;99.90;;;;;;4990889;28;20219;-92
2022/06/20 02:53:44;;;;;;;14.95;9.35;;;21.70;99.90;;;;;;4990996;28;20180;-91
2022/06/20 02:56:15;;;;;;;15.13;9.07;;;21.80;99.90;;;;;;4990830;28;20188;-91
2022/06/20 02:58:44;;;;;;;12.43;9.45;;;21.90;99.90;;;;;;4991061;28;20183;-91
2022/06/20 03:01:32;;;;;;;13.40;9.38;;;22.00;99.90;;;;;;4990913;28;20262;-91
2022/06/20 03:03:58;;;;;;;15.18;9.60;;;22.10;99.90;;;;;;4991023;28;20188;-92
2022/06/20 03:06:27;;;;;;;15.35;10.00;;;22.10;99.90;;;;;;4991014;28;20179;-91
2022/06/20 03:08:54;;;;;;;12.57;9.20;;;22.10;99.90;;;;;;4975047;28;20659;-91
2022/06/20 03:11:21;;;;;;;15.23;9.77;;;22.00;99.90;;;;;;4991853;28;20204;-91
2022/06/20 03:13:48;;;;;;;18.25;10.40;;;22.00;99.90;;;;;;4975456;28;20184;-91
2022/06/20 03:16:14;;;;;;;16.05;10.40;;;21.90;99.90;;;;;;4992015;28;20188;-91
2022/06/20 03:18:43;;;;;;;18.88;10.75;;;21.80;99.90;;;;;;4992274;28;20188;-91
2022/06/20 03:21:12;;;;;;;14.13;10.63;;;21.70;99.90;;;;;;4990911;28;20295;-91
2022/06/20 03:23:38;;;;;;;16.75;10.95;;;21.80;99.90;;;;;;4991988;28;20223;-92
2022/06/20 03:26:09;;;;;;;16.83;11.65;;;21.70;99.90;;;;;;4991105;28;20176;-91
2022/06/20 03:28:35;;;;;;;18.60;10.52;;;21.70;99.90;;;;;;4974608;28;20179;-92
2022/06/20 03:31:02;;;;;;;19.48;10.98;;;21.70;99.90;;;;;;4974626;28;20196;-92
2022/06/20 03:33:29;;;;;;;17.95;11.10;;;21.70;99.90;;;;;;4975011;28;20184;-92
2022/06/20 03:36:02;;;;;;;18.92;11.65;;;21.80;99.90;;;;;;4974762;28;20226;-92
2022/06/20 03:38:29;;;;;;;19.05;10.98;;;21.70;99.90;;;;;;4974827;28;20648;-91
2022/06/20 03:40:55;;;;;;;17.02;11.27;;;21.70;99.90;;;;;;4974184;28;20200;-92
2022/06/20 03:43:24;;;;;;;18.40;11.10;;;21.70;99.90;;;;;;4974936;28;20219;-91
2022/06/20 03:45:59;;;;;;;17.23;11.48;;;21.70;99.90;;;;;;4974611;28;20184;-92
2022/06/20 03:48:40;;;;;;;17.00;11.07;;;21.60;99.90;;;;;;4974506;28;20184;-92
2022/06/20 03:51:17;;;;;;;14.27;10.40;;;21.50;99.90;;;;;;4974554;28;20234;-91
2022/06/20 03:53:49;;;;;;;16.67;10.43;;;21.40;99.90;;;;;;4974655;28;20270;-92
2022/06/20 03:56:22;;;;;;;16.55;10.70;;;21.30;99.90;;;;;;4974352;28;20183;-92
2022/06/20 03:59:18;;;;;;;13.95;10.50;;;21.30;99.90;;;;;;4974149;28;20264;-92
2022/06/20 04:01:53;;;;;;;17.85;11.23;;;21.40;99.90;;;;;;4966871;28;20358;-92
2022/06/20 04:04:42;;;;;;;20.35;11.32;;;21.30;99.90;;;;;;4974332;28;20176;-92
2022/06/20 04:07:16;;;;;;;17.52;10.70;;;21.30;99.90;;;;;;4990402;28;20241;-91
2022/06/20 04:12:51;;;;;;;16.73;10.25;;;21.20;99.90;;;;;;4990237;28;20199;-92
2022/06/20 04:15:31;;;;;;;13.57;10.00;;;21.20;99.90;;;;;;4990158;28;20211;-91
2022/06/20 04:21:02;;;;;;;21.13;12.23;;;21.30;99.90;;;;;;4989285;28;20204;-91
2022/06/20 04:23:41;;;;;;;17.60;12.00;;;21.30;99.90;;;;;;4973599;28;20227;-91
2022/06/20 04:26:24;;;;;;;21.67;12.32;;;21.30;99.90;;;;;;4957141;28;20195;-91
2022/06/20 04:29:00;;;;;;;21.13;12.18;;;21.40;99.90;;;;;;4957889;28;20187;-91
2022/06/20 04:31:33;;;;;;;20.77;12.68;;;21.40;99.90;;;;;;4990519;28;20202;-92
2022/06/20 04:34:27;;;;;;;23.50;14.75;;;21.40;99.90;;;;;;4977330;28;20180;-91
2022/06/20 04:37:27;;;;;;;19.00;12.88;;;21.50;99.90;;;;;;4990753;28;20168;-92
2022/06/20 04:40:12;;;;;;;16.75;11.65;;;21.50;99.90;;;;;;4982001;28;20184;-91
2022/06/20 04:42:40;;;;;;;19.35;11.88;;;21.50;99.90;;;;;;4993481;28;20226;-91
2022/06/20 04:45:18;;;;;;;21.40;12.05;;;21.50;99.90;;;;;;4977282;28;20188;-91
2022/06/20 04:47:50;;;;;;;17.42;11.38;;;21.50;99.90;;;;;;4977339;28;20256;-92
2022/06/20 04:50:21;;;;;;;19.95;12.60;;;21.50;99.90;;;;;;4982793;28;20176;-92
2022/06/20 04:52:50;;;;;;;19.60;12.10;;;21.50;99.90;;;;;;4978203;28;20305;-91
2022/06/20 04:55:21;;;;;;;17.20;11.43;;;21.50;99.90;;;;;;4999813;28;20184;-92
2022/06/20 04:57:47;;;;;;;18.25;12.80;;;21.50;99.90;;;;;;4975486;28;20180;-91
2022/06/20 05:00:27;;;;;;;24.90;12.93;;;21.50;99.90;;;;;;4976968;28;20267;-92
2022/06/20 05:02:55;;;;;;;17.63;12.40;;;21.60;99.90;;;;;;4978377;28;20299;-84
2022/06/20 05:05:26;;;;;;;15.02;12.07;;;21.60;99.90;;;;;;4995085;28;20180;-90
2022/06/20 05:07:52;;;;;;;22.48;13.20;;;21.60;99.90;;;;;;4994815;28;20282;-92
2022/06/20 05:10:30;;;;;;;18.90;12.85;;;21.60;99.90;;;;;;4993488;28;20191;-90
2022/06/20 05:13:11;;;;;;;15.30;12.38;;;21.60;99.90;;;;;;4976349;28;20182;-91
2022/06/20 05:15:43;;;;;;;16.80;12.82;;;21.60;99.90;;;;;;4992078;28;20195;-91
2022/06/20 05:18:36;;;;;;;18.88;13.07;;;21.60;99.90;;;;;;4975357;28;20176;-91
2022/06/20 05:21:23;;;;;;;16.80;12.07;;;21.70;99.90;;;;;;4987620;28;20200;-91
2022/06/20 05:23:53;;;;;;;14.75;11.93;;;21.80;99.90;;;;;;4991620;28;20191;-91
2022/06/20 05:26:32;;;;;;;17.27;12.02;;;21.90;99.90;;;;;;4959824;28;20188;-91
2022/06/20 05:29:03;;;;;;;16.42;12.60;;;21.90;99.90;;;;;;4959615;28;20180;-90
2022/06/20 05:31:33;;;;;;;18.05;12.43;;;21.90;99.90;;;;;;4993795;28;20207;-90
2022/06/20 05:34:10;;;;;;;20.17;13.15;;;21.90;99.90;;;;;;4997032;28;20231;-90
2022/06/20 05:36:43;;;;;;;17.05;12.57;;;21.90;99.90;;;;;;4975896;28;20203;-90
2022/06/20 05:39:30;;;;;;;19.55;13.48;;;21.90;99.90;;;;;;4959737;28;20267;-90
2022/06/20 05:41:56;;;;;;;16.02;12.80;;;21.80;99.90;;;;;;4959474;28;20379;-89
2022/06/20 05:44:22;;;;;;;22.33;13.82;;;21.70;99.90;;;;;;4958719;28;20184;-89
2022/06/20 05:46:59;;;;;;;19.23;13.65;;;21.70;99.90;;;;;;4959366;28;20187;-90
2022/06/20 05:49:51;;;;;;;18.45;13.60;;;21.80;99.90;;;;;;4959679;28;20183;-90
2022/06/20 05:52:22;;;;;;;19.20;13.32;;;21.60;99.90;;;;;;4952838;28;20204;-90
2022/06/20 05:55:25;;;;;;;16.73;12.82;;;21.50;99.90;;;;;;4970751;28;20188;-90
2022/06/20 05:57:55;;;;;;;19.58;13.07;;;21.40;99.90;;;;;;4959547;28;20187;-90
2022/06/20 06:00:25;;;;;;;17.80;13.25;;;21.40;99.90;;;;;;4959517;28;20215;-90
2022/06/20 06:03:24;;;;;;;20.67;13.32;;;21.40;99.90;;;;;;4959758;28;20234;-90
2022/06/20 06:05:59;;;;;;;16.83;13.95;;;21.50;99.90;;;;;;4947132;28;20195;-90
2022/06/20 06:08:37;;;;;;;18.65;13.63;;;21.50;99.90;;;;;;4985071;28;20187;-90
2022/06/20 06:11:14;;;;;;;15.80;13.05;;;21.60;99.90;;;;;;4992486;28;20227;-90
2022/06/20 06:14:13;;;;;;;16.98;12.68;;;21.80;99.90;;;;;;4975165;28;20237;-90
2022/06/20 06:16:48;;;;;;;16.02;13.23;;;21.90;99.90;;;;;;4976620;28;20180;-90
2022/06/20 06:19:41;;;;;;;17.40;12.15;;;22.00;99.90;;;;;;4977334;28;20180;-88
2022/06/20 06:22:13;;;;;;;17.35;13.05;;;22.10;99.90;;;;;;4978181;28;20306;-90
2022/06/20 06:24:42;;;;;;;22.45;12.52;;;22.20;99.90;;;;;;4993302;28;20196;-90
2022/06/20 06:27:15;;;;;;;19.92;13.68;;;22.30;99.90;;;;;;4975677;28;20184;-90
2022/06/20 06:29:47;;;;;;;20.63;12.88;;;22.30;99.90;;;;;;5006130;28;20184;-91
2022/06/20 06:32:20;;;;;;;17.77;12.70;;;22.20;99.90;;;;;;4991336;28;20288;-90
2022/06/20 06:35:06;;;;;;;17.48;11.85;;;22.20;99.90;;;;;;4993862;28;20675;-92
2022/06/20 06:37:54;;;;;;;17.08;12.30;;;22.30;99.90;;;;;;4978794;28;20211;-92
2022/06/20 06:40:35;;;;;;;13.63;10.88;;;22.60;99.90;;;;;;4994979;28;20219;-91
2022/06/20 06:43:11;;;;;;;15.38;11.40;;;22.80;99.90;;;;;;4977371;28;20207;-91
2022/06/20 06:45:37;;;;;;;17.40;11.32;;;22.90;99.90;;;;;;4960858;28;20271;-93
2022/06/20 06:48:16;;;;;;;13.88;11.20;;;23.10;99.90;;;;;;4959151;28;20203;-92
2022/06/20 06:50:47;;;;;;;17.50;11.45;;;23.20;99.90;;;;;;4958657;28;20188;-92
2022/06/20 06:53:23;;;;;;;18.58;12.35;;;23.30;99.90;;;;;;4974824;28;20698;-92
2022/06/20 06:55:59;;;;;;;13.32;11.63;;;23.30;99.90;;;;;;4958730;28;20205;-93
2022/06/20 06:58:30;;;;;;;15.63;11.32;;;23.30;99.90;;;;;;4958707;28;20187;-92
2022/06/20 07:01:16;;;;;;;14.88;12.40;;;23.30;99.90;;;;;;4975033;28;20210;-92
2022/06/20 07:03:45;;;;;;;14.38;12.68;;;23.50;99.90;;;;;;4959301;28;20261;-92
2022/06/20 07:06:30;;;;;;;16.98;12.52;;;23.60;99.90;;;;;;4959359;28;20201;-92
2022/06/20 07:09:27;;;;;;;14.90;11.80;;;23.70;99.90;;;;;;4959442;28;20245;-92
2022/06/20 07:12:14;;;;;;;15.60;11.82;;;23.70;99.90;;;;;;4962802;28;20216;-92
2022/06/20 07:14:43;;;;;;;16.98;11.93;;;23.80;99.90;;;;;;4992505;28;20178;-92
2022/06/20 07:17:22;;;;;;;15.20;11.45;;;23.90;99.90;;;;;;4960153;28;20187;-92
2022/06/20 07:19:51;;;;;;;14.48;11.48;;;24.00;99.90;;;;;;4960239;28;20187;-92
2022/06/20 07:22:20;;;;;;;14.45;10.18;;;24.20;99.90;;;;;;4959890;28;20208;-92
2022/06/20 07:24:47;;;;;;;16.40;10.63;;;24.40;99.90;;;;;;4959705;28;20176;-92
2022/06/20 07:27:16;;;;;;;11.55;9.98;;;24.50;99.90;;;;;;4959483;28;20208;-92
2022/06/20 07:29:49;;;;;;;17.70;11.88;;;24.60;99.90;;;;;;4974643;28;20184;-92
2022/06/20 07:32:23;;;;;;;17.10;10.45;;;24.70;99.90;;;;;;4958889;28;20226;-92
2022/06/20 07:34:58;;;;;;;10.90;9.27;;;24.80;99.90;;;;;;4958787;28;20211;-92
2022/06/20 07:37:31;;;;;;;13.13;9.20;;;24.90;99.90;;;;;;4992433;28;20221;-92
2022/06/20 07:40:03;;;;;;;14.65;8.15;;;24.90;99.90;;;;;;4992868;28;20247;-92
2022/06/20 07:42:53;;;;;;;17.83;8.25;;;24.90;99.90;;;;;;4975236;28;20243;-92
2022/06/20 07:45:34;;;;;;;10.68;7.72;;;25.10;99.90;;;;;;4990664;28;20275;-93
2022/06/20 07:48:07;;;;;;;10.15;7.85;;;25.40;99.90;;;;;;4990581;28;20184;-93
2022/06/20 07:50:44;;;;;;;12.25;7.25;;;25.60;99.90;;;;;;4990729;28;20175;-92
2022/06/20 07:53:17;;;;;;;11.23;7.35;;;25.70;99.90;;;;;;4990847;28;20190;-92
2022/06/20 07:55:51;;;;;;;11.05;7.40;;;25.90;99.90;;;;;;4990364;28;20246;-92
2022/06/20 07:58:23;;;;;;;8.23;6.88;;;26.10;99.90;;;;;;4990640;28;20266;-92
2022/06/20 08:00:52;;;;;;;11.32;6.95;;;26.30;99.90;;;;;;4990819;28;20200;-92
2022/06/20 08:03:39;;;;;;;12.27;7.90;;;26.50;99.90;;;;;;4990863;28;20207;-90
2022/06/20 08:06:24;;;;;;;10.70;7.95;;;26.60;99.90;;;;;;4991138;28;20176;-92
2022/06/20 08:08:58;;;;;;;13.65;7.82;;;26.80;99.90;;;;;;4994600;28;20196;-93
2022/06/20 08:11:41;;;;;;;11.70;7.78;;;27.00;99.90;;;;;;4995513;28;20208;-92
2022/06/20 08:14:17;;;;;;;11.27;7.70;;;27.30;99.90;;;;;;4993954;28;20187;-92
2022/06/20 08:16:46;;;;;;;9.43;5.80;;;27.50;99.90;;;;;;4977598;28;20172;-92
2022/06/20 08:19:12;;;;;;;7.05;5.50;;;27.60;99.90;;;;;;4993280;28;20307;-92
2022/06/20 08:21:42;;;;;;;6.75;5.25;;;27.60;99.90;;;;;;4977598;28;20303;-92
2022/06/20 08:24:17;;;;;;;9.52;5.70;;;27.40;99.90;;;;;;4993029;28;20283;-92
2022/06/20 08:26:59;;;;;;;9.85;5.60;;;27.50;99.90;;;;;;4995796;28;20180;-91
2022/06/20 08:29:39;;;;;;;9.93;5.45;;;27.60;99.90;;;;;;4995999;28;20176;-88
2022/06/20 08:32:35;;;;;;;7.43;5.35;;;27.60;99.90;;;;;;4995303;28;20242;-92
2022/06/20 08:35:04;;;;;;;6.75;5.32;;;27.90;99.90;;;;;;4993298;28;20185;-93
2022/06/20 08:37:39;;;;;;;5.38;4.57;;;28.10;99.90;;;;;;4993424;28;20180;-93
2022/06/20 08:40:12;;;;;;;5.22;4.60;;;28.30;99.90;;;;;;4993121;28;20238;-92
2022/06/20 08:42:52;;;;;;;5.10;4.63;;;28.40;99.90;;;;;;4976872;28;20610;-92
2022/06/20 08:45:26;;;;;;;5.47;4.20;;;28.60;99.90;;;;;;4993222;28;20180;-92
2022/06/20 08:48:14;;;;;;;8.35;4.82;;;28.90;99.90;;;;;;4977328;28;20167;-92
2022/06/20 08:51:09;;;;;;;7.40;4.93;;;28.90;99.90;;;;;;4976673;28;20266;-92
2022/06/20 08:53:55;;;;;;;6.80;5.03;;;29.10;99.90;;;;;;4993034;28;20176;-92
2022/06/20 08:56:34;;;;;;;5.35;4.53;;;29.20;99.90;;;;;;4993003;28;20188;-92
2022/06/20 08:59:22;;;;;;;9.68;4.78;;;29.40;99.90;;;;;;4992729;28;20223;-93
2022/06/20 09:01:54;;;;;;;9.50;5.07;;;29.60;99.90;;;;;;4992839;28;20203;-92
2022/06/20 09:04:46;;;;;;;9.20;5.10;;;29.60;99.90;;;;;;4976934;28;20184;-92
2022/06/20 09:07:43;;;;;;;8.60;4.93;;;29.50;99.90;;;;;;4976568;28;20191;-92
2022/06/20 09:10:27;;;;;;;8.38;4.95;;;29.50;99.90;;;;;;4976647;28;20192;-92
2022/06/20 09:12:59;;;;;;;9.82;4.93;;;29.30;99.90;;;;;;4976975;28;20188;-92
2022/06/20 09:15:40;;;;;;;6.07;4.85;;;29.00;99.90;;;;;;4976512;28;20180;-92
2022/06/20 09:18:22;;;;;;;6.25;4.88;;;28.80;99.90;;;;;;4976599;28;20216;-92
2022/06/20 09:20:58;;;;;;;9.23;5.00;;;28.70;99.90;;;;;;4992480;28;20200;-92
2022/06/20 09:23:48;;;;;;;8.63;5.25;;;28.80;99.90;;;;;;4976622;28;20207;-91
2022/06/20 09:26:33;;;;;;;9.73;5.38;;;28.80;99.90;;;;;;4992779;28;20188;-92
2022/06/20 09:29:27;;;;;;;9.85;5.10;;;29.00;99.90;;;;;;4960787;28;20172;-92
2022/06/20 09:32:02;;;;;;;11.35;5.28;;;29.20;99.90;;;;;;4978914;28;20196;-94
2022/06/20 09:34:59;;;;;;;8.55;5.15;;;29.30;99.90;;;;;;4992678;28;20191;-91
2022/06/20 09:37:59;;;;;;;6.70;5.10;;;29.40;99.90;;;;;;4976360;28;20191;-92
2022/06/20 09:40:24;;;;;;;9.32;4.97;;;29.30;99.90;;;;;;4976176;28;20184;-93
2022/06/20 09:42:59;;;;;;;12.90;5.18;;;29.30;99.90;;;;;;4975833;28;20257;-93
2022/06/20 09:45:49;;;;;;;8.77;5.32;;;29.30;99.90;;;;;;4976409;28;20176;-93
2022/06/20 09:48:36;;;;;;;6.70;5.00;;;29.30;99.90;;;;;;4960103;28;20202;-91
2022/06/20 09:51:16;;;;;;;6.10;4.38;;;29.50;99.90;;;;;;4976188;28;20204;-92
2022/06/20 09:54:09;;;;;;;9.07;4.50;;;29.60;99.90;;;;;;4959820;28;20187;-92
2022/06/20 09:57:21;;;;;;;6.32;4.65;;;29.60;99.90;;;;;;4959733;28;20184;-92
2022/06/20 10:00:02;;;;;;;6.70;4.38;;;29.50;99.90;;;;;;4975353;28;20188;-92
2022/06/20 10:03:08;;;;;;;7.40;4.65;;;29.50;99.50;;;;;;4992354;28;20239;-92
2022/06/20 10:05:36;;;;;;;7.35;4.85;;;29.60;99.90;;;;;;4989760;28;20180;-92
2022/06/20 10:08:14;;;;;;;9.95;4.93;;;29.80;99.90;;;;;;4961434;28;20202;-92
2022/06/20 10:11:12;;;;;;;7.35;4.78;;;29.80;99.90;;;;;;4977480;28;20168;-92
2022/06/20 10:14:10;;;;;;;6.70;5.28;;;29.70;99.80;;;;;;4975300;28;20176;-92
2022/06/20 10:17:18;;;;;;;6.93;4.68;;;29.70;99.90;;;;;;4959150;28;20238;-92
2022/06/20 10:20:03;;;;;;;7.03;4.47;;;29.80;99.90;;;;;;4950579;28;20188;-92
2022/06/20 10:22:31;;;;;;;6.82;4.45;;;30.00;99.60;;;;;;4972207;28;20223;-92
2022/06/20 10:25:16;;;;;;;9.70;4.65;;;30.30;99.90;;;;;;4975187;28;20181;-92
2022/06/20 10:28:07;;;;;;;6.10;3.95;;;30.50;99.70;;;;;;4990820;28;20176;-92
2022/06/20 10:30:33;;;;;;;4.85;3.92;;;30.70;99.40;;;;;;4973534;28;20183;-91
2022/06/20 10:33:17;;;;;;;7.45;4.18;;;30.80;98.40;;;;;;4991198;28;20186;-87
2022/06/20 10:36:00;;;;;;;6.32;4.18;;;30.70;97.90;;;;;;4971475;28;20185;-87
2022/06/20 10:38:39;;;;;;;7.65;3.75;;;30.70;99.00;;;;;;4989589;28;20176;-90
2022/06/20 10:41:14;;;;;;;6.00;3.85;;;30.90;98.50;;;;;;4991256;28;20204;-91
2022/06/20 10:43:46;;;;;;;5.90;4.20;;;30.70;97.90;;;;;;4982930;28;20226;-93
2022/06/20 10:46:30;;;;;;;7.78;3.95;;;30.50;97.60;;;;;;4976957;28;20271;-92
2022/06/20 10:49:30;;;;;;;4.82;3.85;;;30.60;98.00;;;;;;4958404;28;20203;-92
2022/06/20 10:52:13;;;;;;;4.90;3.83;;;30.80;99.20;;;;;;4981573;28;20192;-92
2022/06/20 10:55:16;;;;;;;5.80;3.75;;;31.10;98.30;;;;;;4993326;28;20176;-92
2022/06/20 10:58:24;;;;;;;5.32;3.42;;;31.10;96.90;;;;;;4993663;28;20172;-92
2022/06/20 11:01:06;;;;;;;5.05;3.20;;;31.30;95.50;;;;;;4974964;28;20197;-92
2022/06/20 11:04:04;;;;;;;4.93;3.10;;;31.30;95.50;;;;;;4988234;28;20207;-93
2022/06/20 11:06:43;;;;;;;4.53;3.40;;;31.10;95.70;;;;;;4993008;28;20176;-93
2022/06/20 11:09:25;;;;;;;5.80;3.38;;;31.40;96.10;;;;;;4976899;28;20191;-93
2022/06/20 11:12:18;;;;;;;5.22;3.28;;;31.50;95.80;;;;;;4993333;28;20200;-92
2022/06/20 11:14:56;;;;;;;5.90;3.67;;;31.60;96.40;;;;;;4973946;28;20183;-92
2022/06/20 11:17:35;;;;;;;4.28;3.42;;;31.70;95.60;;;;;;4942025;28;20221;-93
2022/06/20 11:20:21;;;;;;;4.28;3.28;;;31.50;95.40;;;;;;4952515;28;20207;-93
2022/06/20 11:22:57;;;;;;;5.40;3.22;;;31.40;94.60;;;;;;4994868;28;20308;-92
2022/06/20 11:25:41;;;;;;;6.97;3.58;;;31.20;94.90;;;;;;4992797;28;20172;-91
2022/06/20 11:28:39;;;;;;;8.63;3.45;;;31.00;95.80;;;;;;4992488;28;20267;-92
2022/06/20 11:31:26;;;;;;;5.22;3.72;;;30.80;95.90;;;;;;4976034;28;20203;-92
2022/06/20 11:34:26;;;;;;;6.70;3.35;;;30.60;96.70;;;;;;4993243;28;20187;-92
2022/06/20 11:37:18;;;;;;;7.07;4.00;;;30.40;96.60;;;;;;4948142;28;20187;-91
2022/06/20 11:39:56;;;;;;;8.07;3.85;;;30.20;96.90;;;;;;4990742;28;20200;-92
2022/06/20 11:42:35;;;;;;;6.38;3.80;;;30.00;97.00;;;;;;4978262;28;20214;-92
2022/06/20 11:45:29;;;;;;;5.18;3.90;;;30.00;97.60;;;;;;4979980;28;20243;-92
2022/06/20 11:47:58;;;;;;;6.82;4.47;;;30.00;97.70;;;;;;4980710;28;20187;-92
2022/06/20 11:50:48;;;;;;;6.20;3.80;;;30.10;97.70;;;;;;4996665;28;20326;-92
2022/06/20 11:53:34;;;;;;;5.35;3.47;;;30.10;97.90;;;;;;4980635;28;20191;-92
2022/06/20 11:56:12;;;;;;;5.57;3.50;;;30.00;96.50;;;;;;4995950;28;20202;-92
2022/06/20 11:59:02;;;;;;;6.32;3.70;;;30.20;97.10;;;;;;4986217;28;20180;-92
2022/06/20 12:01:56;;;;;;;6.05;3.92;;;30.40;96.00;;;;;;4963038;28;20203;-92
2022/06/20 12:04:29;;;;;;;6.25;3.72;;;30.70;96.60;;;;;;4967850;28;20193;-92
2022/06/20 12:07:31;;;;;;;4.80;3.20;;;30.90;96.50;;;;;;4975624;28;20267;-92
2022/06/20 12:10:14;;;;;;;5.60;3.35;;;31.00;96.40;;;;;;4934304;28;20188;-92
2022/06/20 12:13:08;;;;;;;5.25;3.35;;;31.00;96.10;;;;;;4971427;28;20292;-92
2022/06/20 12:15:46;;;;;;;5.55;3.65;;;31.30;96.90;;;;;;4996162;28;20180;-92
2022/06/20 12:18:34;;;;;;;7.85;3.97;;;31.60;95.50;;;;;;4962566;28;20204;-93
2022/06/20 12:24:03;;;;;;;7.53;3.80;;;32.20;95.70;;;;;;5003359;28;20275;-93
2022/06/20 12:26:39;;;;;;;8.73;2.97;;;32.10;94.80;;;;;;5004292;28;20196;-93
2022/06/20 12:29:15;;;;;;;5.00;2.95;;;31.50;95.40;;;;;;4993652;28;20192;-93
2022/06/20 12:31:51;;;;;;;5.07;2.80;;;31.00;95.90;;;;;;4988821;28;20204;-93
2022/06/20 12:34:42;;;;;;;4.65;3.05;;;30.60;96.50;;;;;;4994620;28;20610;-93
2022/06/20 12:37:26;;;;;;;3.75;3.15;;;30.10;96.60;;;;;;4977116;28;20169;-93
2022/06/20 12:40:34;;;;;;;4.97;3.22;;;30.00;96.80;;;;;;4999224;28;20191;-93
2022/06/20 12:43:23;;;;;;;4.88;2.75;;;29.70;96.50;;;;;;4955563;28;20254;-93
2022/06/20 12:46:20;;;;;;;4.93;2.72;;;29.40;97.40;;;;;;4971082;28;20184;-93
2022/06/20 12:49:03;;;;;;;3.92;3.13;;;29.20;97.80;;;;;;4997812;28;20208;-94
2022/06/20 12:51:44;;;;;;;4.28;2.95;;;29.10;98.10;;;;;;4984535;28;20235;-93
2022/06/20 12:54:45;;;;;;;6.03;3.00;;;29.10;97.90;;;;;;4975113;28;20172;-93
2022/06/20 12:57:33;;;;;;;6.28;2.85;;;29.20;98.40;;;;;;4981003;28;20206;-93
2022/06/20 13:00:24;;;;;;;5.43;2.90;;;29.00;98.00;;;;;;4949669;28;20192;-93
2022/06/20 13:03:28;;;;;;;6.07;3.13;;;28.90;98.30;;;;;;4981172;28;20290;-93
2022/06/20 13:06:21;;;;;;;4.65;2.97;;;28.80;97.60;;;;;;4978238;28;20179;-83
2022/06/20 13:08:58;;;;;;;5.55;2.90;;;28.90;98.10;;;;;;4978543;28;20227;-94
2022/06/20 13:11:43;;;;;;;9.52;3.40;;;28.80;98.30;;;;;;4977663;28;20203;-92
2022/06/20 13:14:46;;;;;;;3.50;3.20;;;28.40;98.90;;;;;;4977524;28;20354;-93
2022/06/20 13:17:23;;;;;;;4.88;3.03;;;27.90;99.00;;;;;;4978104;28;20187;-93
2022/06/20 13:20:20;;;;;;;5.45;2.97;;;27.60;99.80;;;;;;4977863;28;20628;-93
2022/06/20 13:23:04;;;;;;;5.05;2.95;;;27.80;99.90;;;;;;4976917;28;20216;-92
2022/06/20 13:25:38;;;;;;;6.03;3.03;;;27.70;98.90;;;;;;4976940;28;20180;-94
2022/06/20 13:28:20;;;;;;;4.88;3.05;;;27.80;99.10;;;;;;4993311;28;20243;-93
2022/06/20 13:30:57;;;;;;;4.63;2.70;;;27.70;99.70;;;;;;4992929;28;20208;-93
2022/06/20 13:33:36;;;;;;;4.22;3.20;;;27.70;98.50;;;;;;4993154;28;20180;-93
2022/06/20 13:36:25;;;;;;;4.85;2.88;;;27.60;98.10;;;;;;4976441;28;20187;-93
2022/06/20 13:39:19;;;;;;;5.88;2.75;;;27.90;99.10;;;;;;4976268;28;20195;-93
2022/06/20 13:41:49;;;;;;;3.53;2.35;;;28.30;98.40;;;;;;4976312;28;20266;-93
2022/06/20 13:44:27;;;;;;;3.28;2.35;;;28.20;98.10;;;;;;4975867;28;20190;-93
2022/06/20 13:46:58;;;;;;;2.92;2.38;;;28.20;97.80;;;;;;4976124;28;20175;-92